sensor_id;sensor_type;location;lat;lon;timestamp;P1;durP1;ratioP1;P2;durP2;ratioP2
16916;SDS011;8575;52.418;13.492;2022-12-18T00:01:47;407.90;;;177.53;;
16916;SDS011;8575;52.418;13.492;2022-12-18T00:03:49;408.90;;;180.23;;
16916;SDS011;8575;52.418;13.492;2022-12-18T00:05:54;406.23;;;168.57;;
16916;SDS011;8575;52.418;13.492;2022-12-18T00:07:56;408.40;;;182.23;;
16916;SDS011;8575;52.418;13.492;2022-12-18T00:09:58;407.90;;;172.80;;
16916;SDS011;8575;52.418;13.492;2022-12-18T00:12:01;411.43;;;195.90;;
16916;SDS011;8575;52.418;13.492;2022-12-18T00:14:03;411.67;;;191.37;;
16916;SDS011;8575;52.418;13.492;2022-12-18T00:16:07;416.37;;;200.93;;
16916;SDS011;8575;52.418;13.492;2022-12-18T00:18:11;413.07;;;196.67;;
16916;SDS011;8575;52.418;13.492;2022-12-18T00:20:14;416.00;;;202.13;;
16916;SDS011;8575;52.418;13.492;2022-12-18T00:22:17;420.67;;;222.30;;
16916;SDS011;8575;52.418;13.492;2022-12-18T00:24:20;416.80;;;204.73;;
16916;SDS011;8575;52.418;13.492;2022-12-18T00:26:22;414.47;;;195.20;;
16916;SDS011;8575;52.418;13.492;2022-12-18T00:28:30;416.97;;;206.70;;
16916;SDS011;8575;52.418;13.492;2022-12-18T00:30:32;411.63;;;186.70;;
16916;SDS011;8575;52.418;13.492;2022-12-18T00:32:35;419.07;;;220.47;;
16916;SDS011;8575;52.418;13.492;2022-12-18T00:34:37;412.80;;;184.73;;
16916;SDS011;8575;52.418;13.492;2022-12-18T00:36:40;416.17;;;202.93;;
16916;SDS011;8575;52.418;13.492;2022-12-18T00:38:44;419.83;;;214.43;;
16916;SDS011;8575;52.418;13.492;2022-12-18T00:40:47;414.40;;;202.77;;
16916;SDS011;8575;52.418;13.492;2022-12-18T00:42:49;415.13;;;200.53;;
16916;SDS011;8575;52.418;13.492;2022-12-18T00:44:56;416.83;;;198.83;;
16916;SDS011;8575;52.418;13.492;2022-12-18T00:46:58;413.53;;;190.33;;
16916;SDS011;8575;52.418;13.492;2022-12-18T00:49:00;415.27;;;197.27;;
16916;SDS011;8575;52.418;13.492;2022-12-18T00:51:03;411.53;;;184.27;;
16916;SDS011;8575;52.418;13.492;2022-12-18T00:53:05;409.63;;;174.83;;
16916;SDS011;8575;52.418;13.492;2022-12-18T00:55:11;412.17;;;178.37;;
16916;SDS011;8575;52.418;13.492;2022-12-18T00:57:14;409.20;;;173.53;;
16916;SDS011;8575;52.418;13.492;2022-12-18T00:59:17;412.47;;;185.63;;
16916;SDS011;8575;52.418;13.492;2022-12-18T01:01:20;414.97;;;190.30;;
16916;SDS011;8575;52.418;13.492;2022-12-18T01:03:22;410.23;;;180.40;;
16916;SDS011;8575;52.418;13.492;2022-12-18T01:05:25;412.10;;;192.03;;
16916;SDS011;8575;52.418;13.492;2022-12-18T01:07:27;415.03;;;200.00;;
16916;SDS011;8575;52.418;13.492;2022-12-18T01:09:30;417.00;;;209.03;;
16916;SDS011;8575;52.418;13.492;2022-12-18T01:11:33;412.03;;;189.97;;
16916;SDS011;8575;52.418;13.492;2022-12-18T01:13:36;411.07;;;184.13;;
16916;SDS011;8575;52.418;13.492;2022-12-18T01:15:38;417.10;;;211.10;;
16916;SDS011;8575;52.418;13.492;2022-12-18T01:17:40;410.57;;;177.53;;
16916;SDS011;8575;52.418;13.492;2022-12-18T01:19:43;418.67;;;208.20;;
16916;SDS011;8575;52.418;13.492;2022-12-18T01:21:45;413.37;;;187.67;;
16916;SDS011;8575;52.418;13.492;2022-12-18T01:23:50;416.07;;;198.07;;
16916;SDS011;8575;52.418;13.492;2022-12-18T01:25:54;413.03;;;190.40;;
16916;SDS011;8575;52.418;13.492;2022-12-18T01:27:57;410.00;;;179.03;;
16916;SDS011;8575;52.418;13.492;2022-12-18T01:29:59;410.43;;;182.03;;
16916;SDS011;8575;52.418;13.492;2022-12-18T01:32:02;410.80;;;181.90;;
16916;SDS011;8575;52.418;13.492;2022-12-18T01:34:04;412.83;;;193.67;;
16916;SDS011;8575;52.418;13.492;2022-12-18T01:36:14;409.70;;;176.63;;
16916;SDS011;8575;52.418;13.492;2022-12-18T01:38:17;408.00;;;168.97;;
16916;SDS011;8575;52.418;13.492;2022-12-18T01:40:20;404.63;;;163.17;;
16916;SDS011;8575;52.418;13.492;2022-12-18T01:42:26;411.37;;;186.97;;
16916;SDS011;8575;52.418;13.492;2022-12-18T01:47:01;409.37;;;184.10;;
16916;SDS011;8575;52.418;13.492;2022-12-18T01:49:03;411.37;;;186.30;;
16916;SDS011;8575;52.418;13.492;2022-12-18T01:51:06;414.63;;;201.27;;
16916;SDS011;8575;52.418;13.492;2022-12-18T01:53:11;411.43;;;186.83;;
16916;SDS011;8575;52.418;13.492;2022-12-18T01:55:17;413.67;;;201.50;;
16916;SDS011;8575;52.418;13.492;2022-12-18T01:57:23;408.30;;;177.93;;
16916;SDS011;8575;52.418;13.492;2022-12-18T01:59:25;408.60;;;179.03;;
16916;SDS011;8575;52.418;13.492;2022-12-18T02:01:29;409.27;;;178.77;;
16916;SDS011;8575;52.418;13.492;2022-12-18T02:03:36;405.03;;;172.13;;
16916;SDS011;8575;52.418;13.492;2022-12-18T02:05:40;408.63;;;178.53;;
16916;SDS011;8575;52.418;13.492;2022-12-18T02:07:53;406.30;;;179.50;;
16916;SDS011;8575;52.418;13.492;2022-12-18T02:10:03;409.80;;;191.17;;
16916;SDS011;8575;52.418;13.492;2022-12-18T02:12:10;406.23;;;180.33;;
16916;SDS011;8575;52.418;13.492;2022-12-18T02:14:18;398.50;;;162.43;;
16916;SDS011;8575;52.418;13.492;2022-12-18T02:16:25;397.67;;;160.53;;
16916;SDS011;8575;52.418;13.492;2022-12-18T02:18:35;397.60;;;161.83;;
16916;SDS011;8575;52.418;13.492;2022-12-18T02:20:40;395.77;;;160.33;;
16916;SDS011;8575;52.418;13.492;2022-12-18T02:22:50;384.70;;;142.33;;
16916;SDS011;8575;52.418;13.492;2022-12-18T02:25:05;386.57;;;145.13;;
16916;SDS011;8575;52.418;13.492;2022-12-18T02:27:16;373.85;;;123.88;;
16916;SDS011;8575;52.418;13.492;2022-12-18T02:29:21;252.83;;;178.33;;
16916;SDS011;8575;52.418;13.492;2022-12-18T02:31:28;112.63;;;104.37;;
16916;SDS011;8575;52.418;13.492;2022-12-18T02:33:33;636.67;;;579.80;;
16916;SDS011;8575;52.418;13.492;2022-12-18T02:35:36;581.27;;;527.90;;
16916;SDS011;8575;52.418;13.492;2022-12-18T02:37:40;480.20;;;368.97;;
16916;SDS011;8575;52.418;13.492;2022-12-18T02:39:44;476.97;;;357.93;;
16916;SDS011;8575;52.418;13.492;2022-12-18T02:41:49;503.13;;;444.43;;
16916;SDS011;8575;52.418;13.492;2022-12-18T02:43:54;449.63;;;282.27;;
16916;SDS011;8575;52.418;13.492;2022-12-18T02:45:58;424.33;;;220.50;;
16916;SDS011;8575;52.418;13.492;2022-12-18T02:48:05;491.27;;;414.20;;
16916;SDS011;8575;52.418;13.492;2022-12-18T02:50:08;462.20;;;308.83;;
16916;SDS011;8575;52.418;13.492;2022-12-18T02:52:17;452.60;;;297.17;;
16916;SDS011;8575;52.418;13.492;2022-12-18T02:54:31;440.13;;;272.17;;
16916;SDS011;8575;52.418;13.492;2022-12-18T02:56:38;434.07;;;269.53;;
16916;SDS011;8575;52.418;13.492;2022-12-18T02:58:46;424.20;;;236.77;;
16916;SDS011;8575;52.418;13.492;2022-12-18T03:01:06;440.33;;;246.40;;
16916;SDS011;8575;52.418;13.492;2022-12-18T03:03:13;419.20;;;231.20;;
16916;SDS011;8575;52.418;13.492;2022-12-18T03:05:19;423.23;;;227.97;;
16916;SDS011;8575;52.418;13.492;2022-12-18T03:07:27;381.50;;;140.33;;
16916;SDS011;8575;52.418;13.492;2022-12-18T03:09:36;354.60;;;110.38;;
16916;SDS011;8575;52.418;13.492;2022-12-18T03:11:41;350.02;;;109.57;;
16916;SDS011;8575;52.418;13.492;2022-12-18T03:14:03;347.73;;;104.18;;
16916;SDS011;8575;52.418;13.492;2022-12-18T03:16:07;347.33;;;108.53;;
16916;SDS011;8575;52.418;13.492;2022-12-18T03:18:13;344.17;;;102.35;;
16916;SDS011;8575;52.418;13.492;2022-12-18T03:20:19;345.25;;;105.65;;
16916;SDS011;8575;52.418;13.492;2022-12-18T03:22:23;335.83;;;103.97;;
16916;SDS011;8575;52.418;13.492;2022-12-18T03:24:28;337.15;;;102.68;;
16916;SDS011;8575;52.418;13.492;2022-12-18T03:26:32;238.13;;;64.78;;
16916;SDS011;8575;52.418;13.492;2022-12-18T03:28:38;337.67;;;97.85;;
16916;SDS011;8575;52.418;13.492;2022-12-18T03:30:44;328.77;;;92.10;;
16916;SDS011;8575;52.418;13.492;2022-12-18T03:32:50;327.05;;;93.68;;
16916;SDS011;8575;52.418;13.492;2022-12-18T03:34:57;338.58;;;101.15;;
16916;SDS011;8575;52.418;13.492;2022-12-18T03:37:05;329.27;;;94.60;;
16916;SDS011;8575;52.418;13.492;2022-12-18T03:39:08;326.70;;;95.03;;
16916;SDS011;8575;52.418;13.492;2022-12-18T03:41:15;322.80;;;87.68;;
16916;SDS011;8575;52.418;13.492;2022-12-18T03:43:41;324.85;;;90.70;;
16916;SDS011;8575;52.418;13.492;2022-12-18T03:45:48;327.02;;;93.18;;
16916;SDS011;8575;52.418;13.492;2022-12-18T03:47:59;325.98;;;90.82;;
16916;SDS011;8575;52.418;13.492;2022-12-18T03:50:09;330.27;;;98.75;;
16916;SDS011;8575;52.418;13.492;2022-12-18T03:52:19;323.77;;;93.78;;
16916;SDS011;8575;52.418;13.492;2022-12-18T03:54:23;333.40;;;99.95;;
16916;SDS011;8575;52.418;13.492;2022-12-18T03:56:35;317.55;;;83.97;;
16916;SDS011;8575;52.418;13.492;2022-12-18T03:58:40;323.83;;;89.90;;
16916;SDS011;8575;52.418;13.492;2022-12-18T04:00:53;326.80;;;91.05;;
16916;SDS011;8575;52.418;13.492;2022-12-18T04:02:59;334.75;;;100.25;;
16916;SDS011;8575;52.418;13.492;2022-12-18T04:05:12;331.48;;;96.03;;
16916;SDS011;8575;52.418;13.492;2022-12-18T04:07:16;326.38;;;92.40;;
16916;SDS011;8575;52.418;13.492;2022-12-18T04:09:19;325.08;;;88.90;;
16916;SDS011;8575;52.418;13.492;2022-12-18T04:11:23;327.00;;;91.70;;
16916;SDS011;8575;52.418;13.492;2022-12-18T04:13:27;325.70;;;91.28;;
16916;SDS011;8575;52.418;13.492;2022-12-18T04:15:32;333.38;;;94.15;;
16916;SDS011;8575;52.418;13.492;2022-12-18T04:17:37;337.13;;;98.47;;
16916;SDS011;8575;52.418;13.492;2022-12-18T04:19:41;332.13;;;98.22;;
16916;SDS011;8575;52.418;13.492;2022-12-18T04:21:45;325.80;;;94.05;;
16916;SDS011;8575;52.418;13.492;2022-12-18T04:23:48;332.13;;;96.47;;
16916;SDS011;8575;52.418;13.492;2022-12-18T04:25:54;333.35;;;96.28;;
16916;SDS011;8575;52.418;13.492;2022-12-18T04:28:10;323.85;;;91.80;;
16916;SDS011;8575;52.418;13.492;2022-12-18T04:30:13;330.35;;;98.18;;
16916;SDS011;8575;52.418;13.492;2022-12-18T04:32:16;331.58;;;99.28;;
16916;SDS011;8575;52.418;13.492;2022-12-18T04:34:19;330.88;;;101.00;;
16916;SDS011;8575;52.418;13.492;2022-12-18T04:36:30;323.73;;;92.38;;
16916;SDS011;8575;52.418;13.492;2022-12-18T04:38:32;328.27;;;96.78;;
16916;SDS011;8575;52.418;13.492;2022-12-18T04:40:40;324.30;;;93.50;;
16916;SDS011;8575;52.418;13.492;2022-12-18T04:42:51;328.85;;;97.13;;
16916;SDS011;8575;52.418;13.492;2022-12-18T04:44:53;333.58;;;100.10;;
16916;SDS011;8575;52.418;13.492;2022-12-18T04:46:55;332.02;;;98.18;;
16916;SDS011;8575;52.418;13.492;2022-12-18T04:48:58;336.45;;;100.00;;
16916;SDS011;8575;52.418;13.492;2022-12-18T04:51:00;340.85;;;107.63;;
16916;SDS011;8575;52.418;13.492;2022-12-18T04:53:04;335.00;;;103.95;;
16916;SDS011;8575;52.418;13.492;2022-12-18T04:55:06;337.45;;;106.50;;
16916;SDS011;8575;52.418;13.492;2022-12-18T04:57:09;329.55;;;97.78;;
16916;SDS011;8575;52.418;13.492;2022-12-18T04:59:11;335.60;;;103.40;;
16916;SDS011;8575;52.418;13.492;2022-12-18T05:01:14;330.02;;;99.28;;
16916;SDS011;8575;52.418;13.492;2022-12-18T05:03:17;327.23;;;97.75;;
16916;SDS011;8575;52.418;13.492;2022-12-18T05:05:19;336.38;;;104.95;;
16916;SDS011;8575;52.418;13.492;2022-12-18T05:07:22;333.15;;;99.75;;
16916;SDS011;8575;52.418;13.492;2022-12-18T05:09:25;335.70;;;101.90;;
16916;SDS011;8575;52.418;13.492;2022-12-18T05:11:27;331.83;;;101.05;;
16916;SDS011;8575;52.418;13.492;2022-12-18T05:13:30;331.65;;;103.78;;
16916;SDS011;8575;52.418;13.492;2022-12-18T05:15:32;327.73;;;96.88;;
16916;SDS011;8575;52.418;13.492;2022-12-18T05:17:35;331.60;;;102.35;;
16916;SDS011;8575;52.418;13.492;2022-12-18T05:19:37;329.25;;;98.63;;
16916;SDS011;8575;52.418;13.492;2022-12-18T05:21:39;330.30;;;99.15;;
16916;SDS011;8575;52.418;13.492;2022-12-18T05:23:42;328.45;;;100.35;;
16916;SDS011;8575;52.418;13.492;2022-12-18T05:25:50;325.63;;;97.25;;
16916;SDS011;8575;52.418;13.492;2022-12-18T05:27:52;325.15;;;92.70;;
16916;SDS011;8575;52.418;13.492;2022-12-18T05:29:55;694.65;;;632.75;;
16916;SDS011;8575;52.418;13.492;2022-12-18T05:31:57;513.10;;;456.97;;
16916;SDS011;8575;52.418;13.492;2022-12-18T05:33:59;472.07;;;357.50;;
16916;SDS011;8575;52.418;13.492;2022-12-18T05:36:02;469.67;;;352.23;;
16916;SDS011;8575;52.418;13.492;2022-12-18T05:38:06;465.83;;;339.77;;
16916;SDS011;8575;52.418;13.492;2022-12-18T05:40:09;445.17;;;309.60;;
16916;SDS011;8575;52.418;13.492;2022-12-18T05:42:13;1.00;;;1.00;;
16916;SDS011;8575;52.418;13.492;2022-12-18T05:44:15;17.57;;;16.30;;
16916;SDS011;8575;52.418;13.492;2022-12-18T05:46:18;302.90;;;126.97;;
16916;SDS011;8575;52.418;13.492;2022-12-18T05:48:20;327.77;;;95.40;;
16916;SDS011;8575;52.418;13.492;2022-12-18T05:50:23;321.33;;;89.00;;
16916;SDS011;8575;52.418;13.492;2022-12-18T05:52:25;318.15;;;88.13;;
16916;SDS011;8575;52.418;13.492;2022-12-18T05:54:28;318.58;;;84.68;;
16916;SDS011;8575;52.418;13.492;2022-12-18T05:56:30;321.55;;;88.47;;
16916;SDS011;8575;52.418;13.492;2022-12-18T05:58:34;318.25;;;84.18;;
16916;SDS011;8575;52.418;13.492;2022-12-18T06:00:37;320.95;;;87.25;;
16916;SDS011;8575;52.418;13.492;2022-12-18T06:02:41;329.77;;;92.80;;
16916;SDS011;8575;52.418;13.492;2022-12-18T06:04:43;323.02;;;87.50;;
16916;SDS011;8575;52.418;13.492;2022-12-18T06:06:46;321.50;;;86.60;;
16916;SDS011;8575;52.418;13.492;2022-12-18T06:08:48;328.73;;;91.78;;
16916;SDS011;8575;52.418;13.492;2022-12-18T06:10:51;329.63;;;91.53;;
16916;SDS011;8575;52.418;13.492;2022-12-18T06:12:54;330.23;;;91.03;;
16916;SDS011;8575;52.418;13.492;2022-12-18T06:14:58;335.70;;;96.00;;
16916;SDS011;8575;52.418;13.492;2022-12-18T06:17:00;330.77;;;93.15;;
16916;SDS011;8575;52.418;13.492;2022-12-18T06:19:03;330.40;;;94.68;;
16916;SDS011;8575;52.418;13.492;2022-12-18T06:21:06;333.15;;;94.72;;
16916;SDS011;8575;52.418;13.492;2022-12-18T06:23:08;327.15;;;90.35;;
16916;SDS011;8575;52.418;13.492;2022-12-18T06:25:11;334.70;;;99.03;;
16916;SDS011;8575;52.418;13.492;2022-12-18T06:27:13;330.15;;;94.25;;
16916;SDS011;8575;52.418;13.492;2022-12-18T06:29:16;330.00;;;96.03;;
16916;SDS011;8575;52.418;13.492;2022-12-18T06:31:20;325.33;;;90.93;;
16916;SDS011;8575;52.418;13.492;2022-12-18T06:33:25;327.30;;;97.35;;
16916;SDS011;8575;52.418;13.492;2022-12-18T06:35:28;324.05;;;92.45;;
16916;SDS011;8575;52.418;13.492;2022-12-18T06:37:30;325.35;;;92.22;;
16916;SDS011;8575;52.418;13.492;2022-12-18T06:39:33;324.90;;;92.22;;
16916;SDS011;8575;52.418;13.492;2022-12-18T06:41:35;328.55;;;91.75;;
16916;SDS011;8575;52.418;13.492;2022-12-18T06:43:37;329.33;;;94.88;;
16916;SDS011;8575;52.418;13.492;2022-12-18T06:45:39;326.05;;;92.13;;
16916;SDS011;8575;52.418;13.492;2022-12-18T06:47:44;329.17;;;94.80;;
16916;SDS011;8575;52.418;13.492;2022-12-18T06:49:46;335.20;;;98.25;;
16916;SDS011;8575;52.418;13.492;2022-12-18T06:51:48;334.35;;;102.35;;
16916;SDS011;8575;52.418;13.492;2022-12-18T06:53:51;324.27;;;92.32;;
16916;SDS011;8575;52.418;13.492;2022-12-18T06:55:58;324.88;;;92.45;;
16916;SDS011;8575;52.418;13.492;2022-12-18T06:58:01;326.48;;;93.07;;
16916;SDS011;8575;52.418;13.492;2022-12-18T07:00:04;326.00;;;92.90;;
16916;SDS011;8575;52.418;13.492;2022-12-18T07:02:10;328.13;;;93.22;;
16916;SDS011;8575;52.418;13.492;2022-12-18T07:04:14;323.50;;;95.22;;
16916;SDS011;8575;52.418;13.492;2022-12-18T07:06:18;327.52;;;94.47;;
16916;SDS011;8575;52.418;13.492;2022-12-18T07:08:21;321.80;;;92.55;;
16916;SDS011;8575;52.418;13.492;2022-12-18T07:10:23;321.05;;;89.20;;
16916;SDS011;8575;52.418;13.492;2022-12-18T07:12:26;322.80;;;91.65;;
16916;SDS011;8575;52.418;13.492;2022-12-18T07:14:28;324.85;;;91.80;;
16916;SDS011;8575;52.418;13.492;2022-12-18T07:16:30;322.40;;;93.18;;
16916;SDS011;8575;52.418;13.492;2022-12-18T07:18:33;322.73;;;90.65;;
16916;SDS011;8575;52.418;13.492;2022-12-18T07:20:36;326.98;;;99.10;;
16916;SDS011;8575;52.418;13.492;2022-12-18T07:22:39;331.25;;;102.35;;
16916;SDS011;8575;52.418;13.492;2022-12-18T07:24:41;323.10;;;95.25;;
16916;SDS011;8575;52.418;13.492;2022-12-18T07:26:45;330.25;;;98.18;;
16916;SDS011;8575;52.418;13.492;2022-12-18T07:28:47;322.45;;;91.03;;
16916;SDS011;8575;52.418;13.492;2022-12-18T07:30:50;379.60;;;157.00;;
16916;SDS011;8575;52.418;13.492;2022-12-18T07:32:52;363.75;;;140.32;;
16916;SDS011;8575;52.418;13.492;2022-12-18T07:34:54;482.23;;;388.40;;
16916;SDS011;8575;52.418;13.492;2022-12-18T07:36:58;458.90;;;344.13;;
16916;SDS011;8575;52.418;13.492;2022-12-18T07:39:00;463.33;;;358.53;;
16916;SDS011;8575;52.418;13.492;2022-12-18T07:41:03;463.13;;;358.30;;
16916;SDS011;8575;52.418;13.492;2022-12-18T07:43:06;457.63;;;339.17;;
16916;SDS011;8575;52.418;13.492;2022-12-18T07:45:09;464.80;;;347.53;;
16916;SDS011;8575;52.418;13.492;2022-12-18T07:47:11;451.57;;;314.20;;
16916;SDS011;8575;52.418;13.492;2022-12-18T07:49:14;450.13;;;308.70;;
16916;SDS011;8575;52.418;13.492;2022-12-18T07:51:16;437.90;;;291.63;;
16916;SDS011;8575;52.418;13.492;2022-12-18T07:53:20;435.67;;;281.67;;
16916;SDS011;8575;52.418;13.492;2022-12-18T07:55:23;429.47;;;270.67;;
16916;SDS011;8575;52.418;13.492;2022-12-18T07:57:25;426.93;;;252.27;;
16916;SDS011;8575;52.418;13.492;2022-12-18T07:59:27;437.13;;;289.63;;
16916;SDS011;8575;52.418;13.492;2022-12-18T08:01:29;443.07;;;304.60;;
16916;SDS011;8575;52.418;13.492;2022-12-18T08:03:32;440.50;;;293.10;;
16916;SDS011;8575;52.418;13.492;2022-12-18T08:05:34;433.07;;;278.00;;
16916;SDS011;8575;52.418;13.492;2022-12-18T08:07:37;430.43;;;268.13;;
16916;SDS011;8575;52.418;13.492;2022-12-18T08:09:40;428.23;;;260.10;;
16916;SDS011;8575;52.418;13.492;2022-12-18T08:11:43;432.10;;;271.73;;
16916;SDS011;8575;52.418;13.492;2022-12-18T08:13:45;432.77;;;274.40;;
16916;SDS011;8575;52.418;13.492;2022-12-18T08:15:54;429.70;;;259.97;;
16916;SDS011;8575;52.418;13.492;2022-12-18T08:17:57;433.27;;;267.20;;
16916;SDS011;8575;52.418;13.492;2022-12-18T08:20:00;432.57;;;270.27;;
16916;SDS011;8575;52.418;13.492;2022-12-18T08:22:02;433.87;;;276.30;;
16916;SDS011;8575;52.418;13.492;2022-12-18T08:24:04;430.70;;;264.77;;
16916;SDS011;8575;52.418;13.492;2022-12-18T08:26:09;433.73;;;272.17;;
16916;SDS011;8575;52.418;13.492;2022-12-18T08:28:12;431.33;;;261.47;;
16916;SDS011;8575;52.418;13.492;2022-12-18T08:30:17;431.33;;;265.83;;
16916;SDS011;8575;52.418;13.492;2022-12-18T08:32:19;432.60;;;273.43;;
16916;SDS011;8575;52.418;13.492;2022-12-18T08:34:22;430.90;;;272.53;;
16916;SDS011;8575;52.418;13.492;2022-12-18T08:36:25;435.90;;;291.63;;
16916;SDS011;8575;52.418;13.492;2022-12-18T08:38:27;431.23;;;276.50;;
16916;SDS011;8575;52.418;13.492;2022-12-18T08:40:30;595.75;;;537.85;;
16916;SDS011;8575;52.418;13.492;2022-12-18T08:42:36;641.10;;;582.83;;
16916;SDS011;8575;52.418;13.492;2022-12-18T08:44:56;614.40;;;557.28;;
16916;SDS011;8575;52.418;13.492;2022-12-18T08:46:58;470.47;;;388.63;;
16916;SDS011;8575;52.418;13.492;2022-12-18T08:49:00;460.53;;;363.47;;
16916;SDS011;8575;52.418;13.492;2022-12-18T08:51:03;435.23;;;282.70;;
16916;SDS011;8575;52.418;13.492;2022-12-18T08:53:05;426.23;;;258.80;;
16916;SDS011;8575;52.418;13.492;2022-12-18T08:55:08;427.60;;;265.03;;
16916;SDS011;8575;52.418;13.492;2022-12-18T08:57:11;423.70;;;261.77;;
16916;SDS011;8575;52.418;13.492;2022-12-18T08:59:15;436.77;;;280.03;;
16916;SDS011;8575;52.418;13.492;2022-12-18T09:01:17;414.73;;;220.33;;
16916;SDS011;8575;52.418;13.492;2022-12-18T09:03:19;412.17;;;204.73;;
16916;SDS011;8575;52.418;13.492;2022-12-18T09:05:23;428.83;;;244.17;;
16916;SDS011;8575;52.418;13.492;2022-12-18T09:07:25;440.20;;;264.37;;
16916;SDS011;8575;52.418;13.492;2022-12-18T09:09:27;449.90;;;287.30;;
16916;SDS011;8575;52.418;13.492;2022-12-18T09:11:30;428.37;;;231.13;;
16916;SDS011;8575;52.418;13.492;2022-12-18T09:13:33;413.73;;;199.50;;
16916;SDS011;8575;52.418;13.492;2022-12-18T09:15:40;413.33;;;200.43;;
16916;SDS011;8575;52.418;13.492;2022-12-18T09:17:43;419.70;;;210.80;;
16916;SDS011;8575;52.418;13.492;2022-12-18T09:19:45;414.03;;;196.37;;
16916;SDS011;8575;52.418;13.492;2022-12-18T09:21:48;413.00;;;195.53;;
16916;SDS011;8575;52.418;13.492;2022-12-18T09:23:50;414.27;;;212.47;;
16916;SDS011;8575;52.418;13.492;2022-12-18T09:25:58;411.33;;;194.83;;
16916;SDS011;8575;52.418;13.492;2022-12-18T09:28:00;411.27;;;177.70;;
16916;SDS011;8575;52.418;13.492;2022-12-18T09:30:05;413.80;;;188.90;;
16916;SDS011;8575;52.418;13.492;2022-12-18T09:32:10;413.87;;;207.30;;
16916;SDS011;8575;52.418;13.492;2022-12-18T09:34:12;416.73;;;217.27;;
16916;SDS011;8575;52.418;13.492;2022-12-18T09:36:15;414.70;;;205.77;;
16916;SDS011;8575;52.418;13.492;2022-12-18T09:38:19;424.30;;;215.90;;
16916;SDS011;8575;52.418;13.492;2022-12-18T09:40:25;430.50;;;246.03;;
16916;SDS011;8575;52.418;13.492;2022-12-18T09:42:28;426.90;;;225.03;;
16916;SDS011;8575;52.418;13.492;2022-12-18T09:44:30;425.10;;;217.93;;
16916;SDS011;8575;52.418;13.492;2022-12-18T09:46:39;455.40;;;324.15;;
16916;SDS011;8575;52.418;13.492;2022-12-18T09:48:47;454.45;;;345.13;;
16916;SDS011;8575;52.418;13.492;2022-12-18T09:50:51;458.73;;;359.67;;
16916;SDS011;8575;52.418;13.492;2022-12-18T09:53:00;580.95;;;525.17;;
16916;SDS011;8575;52.418;13.492;2022-12-18T09:55:09;470.53;;;351.50;;
16916;SDS011;8575;52.418;13.492;2022-12-18T09:57:17;412.23;;;191.00;;
16916;SDS011;8575;52.418;13.492;2022-12-18T09:59:23;406.40;;;173.07;;
16916;SDS011;8575;52.418;13.492;2022-12-18T10:01:27;411.90;;;183.30;;
16916;SDS011;8575;52.418;13.492;2022-12-18T10:03:30;408.77;;;183.83;;
16916;SDS011;8575;52.418;13.492;2022-12-18T10:05:36;408.63;;;183.77;;
16916;SDS011;8575;52.418;13.492;2022-12-18T10:07:51;412.70;;;209.73;;
16916;SDS011;8575;52.418;13.492;2022-12-18T10:09:58;409.63;;;190.87;;
16916;SDS011;8575;52.418;13.492;2022-12-18T10:12:06;404.90;;;168.70;;
16916;SDS011;8575;52.418;13.492;2022-12-18T10:14:13;407.83;;;174.77;;
16916;SDS011;8575;52.418;13.492;2022-12-18T10:16:23;408.33;;;184.63;;
16916;SDS011;8575;52.418;13.492;2022-12-18T10:18:33;412.07;;;197.33;;
16916;SDS011;8575;52.418;13.492;2022-12-18T10:20:43;414.23;;;205.10;;
16916;SDS011;8575;52.418;13.492;2022-12-18T10:22:50;408.50;;;183.63;;
16916;SDS011;8575;52.418;13.492;2022-12-18T10:24:59;417.17;;;197.87;;
16916;SDS011;8575;52.418;13.492;2022-12-18T10:27:09;419.40;;;215.43;;
16916;SDS011;8575;52.418;13.492;2022-12-18T10:29:16;418.33;;;205.80;;
16916;SDS011;8575;52.418;13.492;2022-12-18T10:31:21;425.13;;;225.30;;
16916;SDS011;8575;52.418;13.492;2022-12-18T10:33:28;423.23;;;240.93;;
16916;SDS011;8575;52.418;13.492;2022-12-18T10:35:30;418.50;;;230.47;;
16916;SDS011;8575;52.418;13.492;2022-12-18T10:37:34;407.97;;;188.00;;
16916;SDS011;8575;52.418;13.492;2022-12-18T10:39:37;411.23;;;195.83;;
16916;SDS011;8575;52.418;13.492;2022-12-18T10:41:39;413.23;;;206.10;;
16916;SDS011;8575;52.418;13.492;2022-12-18T10:43:41;416.27;;;204.90;;
16916;SDS011;8575;52.418;13.492;2022-12-18T10:45:43;412.07;;;201.20;;
16916;SDS011;8575;52.418;13.492;2022-12-18T10:48:00;415.87;;;213.03;;
16916;SDS011;8575;52.418;13.492;2022-12-18T10:50:03;422.97;;;230.93;;
16916;SDS011;8575;52.418;13.492;2022-12-18T10:52:07;409.17;;;188.67;;
16916;SDS011;8575;52.418;13.492;2022-12-18T10:54:18;417.53;;;193.27;;
16916;SDS011;8575;52.418;13.492;2022-12-18T10:56:24;436.90;;;241.93;;
16916;SDS011;8575;52.418;13.492;2022-12-18T10:58:27;413.43;;;200.93;;
16916;SDS011;8575;52.418;13.492;2022-12-18T11:00:32;416.00;;;199.07;;
16916;SDS011;8575;52.418;13.492;2022-12-18T11:02:37;408.03;;;175.17;;
16916;SDS011;8575;52.418;13.492;2022-12-18T11:04:49;409.27;;;188.13;;
16916;SDS011;8575;52.418;13.492;2022-12-18T11:06:59;416.60;;;215.43;;
16916;SDS011;8575;52.418;13.492;2022-12-18T11:09:03;415.30;;;206.87;;
16916;SDS011;8575;52.418;13.492;2022-12-18T11:11:22;405.73;;;181.13;;
16916;SDS011;8575;52.418;13.492;2022-12-18T11:13:25;402.77;;;174.33;;
16916;SDS011;8575;52.418;13.492;2022-12-18T11:15:29;407.67;;;181.03;;
16916;SDS011;8575;52.418;13.492;2022-12-18T11:17:32;409.87;;;186.43;;
16916;SDS011;8575;52.418;13.492;2022-12-18T11:19:36;401.27;;;169.73;;
16916;SDS011;8575;52.418;13.492;2022-12-18T11:21:40;408.77;;;186.93;;
16916;SDS011;8575;52.418;13.492;2022-12-18T11:23:45;408.67;;;187.60;;
16916;SDS011;8575;52.418;13.492;2022-12-18T11:25:55;401.43;;;170.63;;
16916;SDS011;8575;52.418;13.492;2022-12-18T11:28:01;401.50;;;178.80;;
16916;SDS011;8575;52.418;13.492;2022-12-18T11:30:08;396.97;;;155.60;;
16916;SDS011;8575;52.418;13.492;2022-12-18T11:32:27;401.17;;;164.53;;
16916;SDS011;8575;52.418;13.492;2022-12-18T11:34:34;393.30;;;157.10;;
16916;SDS011;8575;52.418;13.492;2022-12-18T11:36:38;392.10;;;161.93;;
16916;SDS011;8575;52.418;13.492;2022-12-18T11:38:41;386.63;;;146.93;;
16916;SDS011;8575;52.418;13.492;2022-12-18T11:40:47;400.13;;;176.90;;
16916;SDS011;8575;52.418;13.492;2022-12-18T11:42:51;459.13;;;300.93;;
16916;SDS011;8575;52.418;13.492;2022-12-18T11:44:58;440.30;;;264.13;;
16916;SDS011;8575;52.418;13.492;2022-12-18T11:47:03;433.50;;;239.17;;
16916;SDS011;8575;52.418;13.492;2022-12-18T11:49:11;414.87;;;199.43;;
16916;SDS011;8575;52.418;13.492;2022-12-18T11:51:16;403.07;;;171.57;;
16916;SDS011;8575;52.418;13.492;2022-12-18T11:53:22;408.70;;;172.53;;
16916;SDS011;8575;52.418;13.492;2022-12-18T11:55:28;410.47;;;183.50;;